createdAt,value
2022-08-31T00:00:20.688Z,65.20
2022-08-31T00:01:11.147Z,65.20
2022-08-31T00:02:01.827Z,65.10
2022-08-31T00:02:52.286Z,65.30
2022-08-31T00:03:42.810Z,65.10
2022-08-31T00:04:14.780Z,64.80
2022-08-31T00:04:46.676Z,65.10
2022-08-31T00:05:18.652Z,64.90
2022-08-31T00:05:50.537Z,65.00
2022-08-31T00:06:23.466Z,64.90
2022-08-31T00:06:55.261Z,65.00
2022-08-31T00:07:31.573Z,65.00
2022-08-31T00:08:03.688Z,63.20
2022-08-31T00:08:36.381Z,65.10
2022-08-31T00:09:08.353Z,65.00
2022-08-31T00:09:40.211Z,65.10
2022-08-31T00:10:18.338Z,65.00
2022-08-31T00:10:50.238Z,64.90
2022-08-31T00:11:28.518Z,64.90
2022-08-31T00:12:00.963Z,65.00
2022-08-31T00:12:32.746Z,65.00
2022-08-31T00:13:06.821Z,64.90
2022-08-31T00:13:39.255Z,65.90
2022-08-31T00:14:13.326Z,65.00
2022-08-31T00:14:45.452Z,65.00
2022-08-31T00:15:22.048Z,65.10
2022-08-31T00:15:57.661Z,64.90
2022-08-31T00:16:32.720Z,65.10
2022-08-31T00:17:07.212Z,65.00
2022-08-31T00:17:40.070Z,65.00
2022-08-31T00:18:12.314Z,65.00
2022-08-31T00:18:44.108Z,65.00
2022-08-31T00:19:16.399Z,64.90
2022-08-31T00:19:48.179Z,65.00
2022-08-31T00:20:33.969Z,65.00
2022-08-31T00:21:06.448Z,64.90
2022-08-31T00:21:39.158Z,64.90
2022-08-31T00:22:11.407Z,64.80
2022-08-31T00:22:43.279Z,64.80
2022-08-31T00:23:17.263Z,64.80
2022-08-31T00:23:49.938Z,64.80
2022-08-31T00:24:21.860Z,64.80
2022-08-31T00:24:53.622Z,64.90
2022-08-31T00:25:25.472Z,65.10
2022-08-31T00:25:57.838Z,64.90
2022-08-31T00:26:29.693Z,64.40
2022-08-31T00:27:02.038Z,64.90
2022-08-31T00:27:34.106Z,65.40
2022-08-31T00:28:07.875Z,64.80
2022-08-31T00:28:39.696Z,64.90
2022-08-31T00:29:12.375Z,65.60
2022-08-31T00:29:44.168Z,64.80
2022-08-31T00:30:16.375Z,65.00
2022-08-31T00:30:48.751Z,64.80
2022-08-31T00:31:20.809Z,64.70
2022-08-31T00:31:53.021Z,64.70
2022-08-31T00:32:28.717Z,64.70
2022-08-31T00:33:01.435Z,64.60
2022-08-31T00:33:33.300Z,64.80
2022-08-31T00:34:05.443Z,64.70
2022-08-31T00:34:37.287Z,64.70
2022-08-31T00:35:09.611Z,64.70
2022-08-31T00:35:42.860Z,64.70
2022-08-31T00:36:14.675Z,64.70
2022-08-31T00:36:47.467Z,64.70
2022-08-31T00:37:19.917Z,64.70
2022-08-31T00:37:51.725Z,64.60
2022-08-31T00:38:23.505Z,64.40
2022-08-31T00:38:57.006Z,64.50
2022-08-31T00:39:29.017Z,64.40
2022-08-31T00:40:01.008Z,64.70
2022-08-31T00:40:38.173Z,64.50
2022-08-31T00:41:20.743Z,64.50
2022-08-31T00:41:52.512Z,65.90
2022-08-31T00:42:26.518Z,64.70
2022-08-31T00:43:00.409Z,64.60
2022-08-31T00:43:45.084Z,63.20
2022-08-31T00:44:17.228Z,64.50
2022-08-31T00:44:49.374Z,64.70
2022-08-31T00:45:22.111Z,66.00
2022-08-31T00:45:54.072Z,64.50
2022-08-31T00:46:30.602Z,64.60
2022-08-31T00:47:02.835Z,64.60
2022-08-31T00:47:34.722Z,64.60
2022-08-31T00:48:06.513Z,64.40
2022-08-31T00:48:48.600Z,64.20
2022-08-31T00:49:34.471Z,64.40
2022-08-31T00:50:10.406Z,64.40
2022-08-31T00:50:42.352Z,64.50
2022-08-31T00:51:18.545Z,64.40
2022-08-31T00:51:58.201Z,64.40
2022-08-31T00:52:37.635Z,64.40
2022-08-31T00:53:10.040Z,64.40
2022-08-31T00:53:42.137Z,64.40
2022-08-31T00:54:17.421Z,64.50
2022-08-31T00:54:59.688Z,64.40
2022-08-31T00:55:36.883Z,64.50
2022-08-31T00:56:09.346Z,64.50
2022-08-31T00:56:44.723Z,64.60
2022-08-31T00:57:17.061Z,64.40
2022-08-31T00:57:56.945Z,64.60
2022-08-31T00:58:28.905Z,64.40
2022-08-31T00:59:01.016Z,64.40
2022-08-31T00:59:33.384Z,64.50
2022-08-31T01:00:11.110Z,64.50
2022-08-31T01:00:43.278Z,64.40
2022-08-31T01:01:15.646Z,64.50
2022-08-31T01:01:50.097Z,64.60
2022-08-31T01:02:22.049Z,64.60
2022-08-31T01:02:56.431Z,64.70
2022-08-31T01:03:28.196Z,64.60
2022-08-31T01:04:00.087Z,64.60
2022-08-31T01:04:33.451Z,64.60
2022-08-31T01:05:07.205Z,64.60
2022-08-31T01:05:41.280Z,64.50
2022-08-31T01:06:14.897Z,64.60
2022-08-31T01:06:48.369Z,64.70
2022-08-31T01:07:20.229Z,64.60
2022-08-31T01:07:53.180Z,64.60
2022-08-31T01:08:29.583Z,66.10
2022-08-31T01:09:05.937Z,64.50
2022-08-31T01:09:43.514Z,64.60
2022-08-31T01:10:33.203Z,64.70
2022-08-31T01:11:05.134Z,64.70
2022-08-31T01:11:39.922Z,64.70
2022-08-31T01:12:12.662Z,64.70
2022-08-31T01:12:47.840Z,64.60
2022-08-31T01:13:22.630Z,64.40
2022-08-31T01:13:58.487Z,64.70
2022-08-31T01:14:30.538Z,64.80
2022-08-31T01:15:04.895Z,64.70
2022-08-31T01:15:37.617Z,64.60
2022-08-31T01:16:16.079Z,64.50
2022-08-31T01:16:52.276Z,64.60
2022-08-31T01:17:24.193Z,64.60
2022-08-31T01:17:59.386Z,65.30
2022-08-31T01:18:33.353Z,64.60
2022-08-31T01:19:11.914Z,64.70
2022-08-31T01:19:58.542Z,64.60
2022-08-31T01:21:00.031Z,64.60
2022-08-31T01:21:52.893Z,64.60
2022-08-31T01:22:55.609Z,65.10
2022-08-31T01:23:32.871Z,64.60
2022-08-31T01:24:06.822Z,64.70
2022-08-31T01:24:41.743Z,64.60
2022-08-31T01:25:15.225Z,64.60
2022-08-31T01:25:49.117Z,64.60
2022-08-31T01:26:25.526Z,64.60
2022-08-31T01:27:04.734Z,64.60
2022-08-31T01:27:37.806Z,64.90
2022-08-31T01:28:10.715Z,64.60
2022-08-31T01:28:43.203Z,64.50
2022-08-31T01:29:14.970Z,64.60
2022-08-31T01:29:49.250Z,64.50
2022-08-31T01:30:24.472Z,64.50
2022-08-31T01:31:00.789Z,64.50
2022-08-31T01:31:40.372Z,64.80
2022-08-31T01:32:12.394Z,64.50
2022-08-31T01:32:44.278Z,63.90
2022-08-31T01:33:16.097Z,64.40
2022-08-31T01:33:48.496Z,64.50
2022-08-31T01:34:20.694Z,64.50
2022-08-31T01:34:52.478Z,64.60
2022-08-31T01:35:25.574Z,64.50
2022-08-31T01:35:59.139Z,64.60
2022-08-31T01:36:34.244Z,64.50
2022-08-31T01:37:06.272Z,64.60
2022-08-31T01:37:38.461Z,64.70
2022-08-31T01:38:10.903Z,64.60
2022-08-31T01:38:43.610Z,64.70
2022-08-31T01:39:15.481Z,64.50
2022-08-31T01:39:47.293Z,64.50
2022-08-31T01:40:19.339Z,64.50
2022-08-31T01:40:58.312Z,64.60
2022-08-31T01:41:30.243Z,64.50
2022-08-31T01:42:02.103Z,64.50
2022-08-31T01:42:34.361Z,64.60
2022-08-31T01:43:06.409Z,64.50
2022-08-31T01:43:39.846Z,64.50
2022-08-31T01:44:14.563Z,64.50
2022-08-31T01:44:46.374Z,64.50
2022-08-31T01:45:18.243Z,64.50
2022-08-31T01:45:50.621Z,64.40
2022-08-31T01:46:23.213Z,64.50
2022-08-31T01:46:55.427Z,64.50
2022-08-31T01:47:27.280Z,64.40
2022-08-31T01:48:00.098Z,64.50
2022-08-31T01:48:32.652Z,64.50
2022-08-31T01:49:04.977Z,64.50
2022-08-31T01:49:36.870Z,64.50
2022-08-31T01:50:09.847Z,64.50
2022-08-31T01:50:42.033Z,64.50
2022-08-31T01:51:16.481Z,64.60
2022-08-31T01:51:50.071Z,64.40
2022-08-31T01:52:22.103Z,64.50
2022-08-31T01:52:56.313Z,64.40
2022-08-31T01:53:28.627Z,64.40
2022-08-31T01:54:00.866Z,64.30
2022-08-31T01:54:33.108Z,64.40
2022-08-31T01:55:07.074Z,64.40
2022-08-31T01:55:39.792Z,64.40
2022-08-31T01:56:19.887Z,64.40
2022-08-31T01:56:51.695Z,64.30
2022-08-31T01:57:34.205Z,64.40
2022-08-31T01:58:22.142Z,64.40
2022-08-31T01:59:08.785Z,64.40
2022-08-31T01:59:49.321Z,64.30
2022-08-31T02:00:43.991Z,64.70
2022-08-31T02:01:34.051Z,64.30
2022-08-31T02:02:07.029Z,64.30
2022-08-31T02:02:41.963Z,64.30
2022-08-31T02:03:15.107Z,64.30
2022-08-31T02:03:47.144Z,64.30
2022-08-31T02:04:21.452Z,64.30
2022-08-31T02:04:53.266Z,64.30
2022-08-31T02:05:25.290Z,64.30
2022-08-31T02:06:27.936Z,64.40
2022-08-31T02:07:00.960Z,64.40
2022-08-31T02:07:33.259Z,64.30
2022-08-31T02:08:08.352Z,64.30
2022-08-31T02:08:40.524Z,64.30
2022-08-31T02:09:14.155Z,64.30
2022-08-31T02:09:45.933Z,64.20
2022-08-31T02:10:17.879Z,64.20
2022-08-31T02:10:49.740Z,64.20
2022-08-31T02:11:21.607Z,64.20
2022-08-31T02:11:53.613Z,64.20
2022-08-31T02:12:25.418Z,65.10
2022-08-31T02:12:58.391Z,64.20
2022-08-31T02:13:36.238Z,64.10
2022-08-31T02:14:08.726Z,64.10
2022-08-31T02:14:40.678Z,64.10
2022-08-31T02:15:12.634Z,64.10
2022-08-31T02:15:45.989Z,64.10
2022-08-31T02:16:20.361Z,64.10
2022-08-31T02:16:52.382Z,64.20
2022-08-31T02:17:24.256Z,64.10
2022-08-31T02:17:56.052Z,64.80
2022-08-31T02:18:28.669Z,64.10
2022-08-31T02:19:00.444Z,64.10
2022-08-31T02:19:32.302Z,64.10
2022-08-31T02:20:07.349Z,64.20
2022-08-31T02:20:39.229Z,64.10
2022-08-31T02:21:13.471Z,64.00
2022-08-31T02:21:46.097Z,63.90
2022-08-31T02:22:18.146Z,63.90
2022-08-31T02:22:49.945Z,63.90
2022-08-31T02:23:21.797Z,63.90
2022-08-31T02:23:54.771Z,64.00
2022-08-31T02:24:30.070Z,63.90
2022-08-31T02:25:02.030Z,64.00
2022-08-31T02:25:33.811Z,63.90
2022-08-31T02:26:08.542Z,63.90
2022-08-31T02:26:40.580Z,63.80
2022-08-31T02:27:12.855Z,63.80
2022-08-31T02:27:44.812Z,63.90
2022-08-31T02:28:18.841Z,63.80
2022-08-31T02:28:50.665Z,63.80
2022-08-31T02:29:22.688Z,63.80
2022-08-31T02:29:54.645Z,63.80
2022-08-31T02:30:27.141Z,63.80
2022-08-31T02:30:58.976Z,63.80
2022-08-31T02:31:30.922Z,63.80
2022-08-31T02:32:05.327Z,63.80
2022-08-31T02:32:37.266Z,63.90
2022-08-31T02:33:10.168Z,63.90
2022-08-31T02:33:41.978Z,63.90
2022-08-31T02:34:14.054Z,63.80
2022-08-31T02:34:45.859Z,63.80
2022-08-31T02:35:17.822Z,63.80
2022-08-31T02:35:51.809Z,63.70
2022-08-31T02:36:26.074Z,63.70
2022-08-31T02:36:58.794Z,63.80
2022-08-31T02:37:31.003Z,63.70
2022-08-31T02:38:05.644Z,63.60
2022-08-31T02:38:38.953Z,63.70
2022-08-31T02:39:11.544Z,63.70
2022-08-31T02:39:44.638Z,63.70
2022-08-31T02:40:17.194Z,63.80
2022-08-31T02:40:50.772Z,64.50
2022-08-31T02:41:23.342Z,63.60
2022-08-31T02:41:55.273Z,63.70
2022-08-31T02:42:31.193Z,63.70
2022-08-31T02:43:24.356Z,63.70
2022-08-31T02:43:58.771Z,63.60
2022-08-31T02:44:30.620Z,63.50
2022-08-31T02:45:02.615Z,63.60
2022-08-31T02:45:34.829Z,64.10
2022-08-31T02:46:12.840Z,63.40
2022-08-31T02:46:49.583Z,63.90
2022-08-31T02:47:56.977Z,63.40
2022-08-31T02:48:33.051Z,63.50
2022-08-31T02:49:05.824Z,63.40
2022-08-31T02:49:37.606Z,63.40
2022-08-31T02:50:10.002Z,63.40
2022-08-31T02:50:45.132Z,63.40
2022-08-31T02:51:16.995Z,63.40
2022-08-31T02:51:51.950Z,63.40
2022-08-31T02:52:24.205Z,63.40
2022-08-31T02:52:56.820Z,63.30
2022-08-31T02:53:28.746Z,63.90
2022-08-31T02:54:00.608Z,63.30
2022-08-31T02:54:32.462Z,63.30
2022-08-31T02:55:05.072Z,63.30
2022-08-31T02:55:37.470Z,63.20
2022-08-31T02:56:09.582Z,63.20
2022-08-31T02:56:41.826Z,63.30
2022-08-31T02:57:13.866Z,63.20
2022-08-31T02:57:45.640Z,63.20
2022-08-31T02:58:23.819Z,63.50
2022-08-31T02:58:56.032Z,63.30
2022-08-31T02:59:29.386Z,63.30
2022-08-31T03:00:02.988Z,63.20
2022-08-31T03:00:36.046Z,63.10
2022-08-31T03:01:07.978Z,63.30
2022-08-31T03:01:40.893Z,63.20
2022-08-31T03:02:13.794Z,63.40
2022-08-31T03:02:45.808Z,63.90
2022-08-31T03:03:18.741Z,63.30
2022-08-31T03:03:51.062Z,63.10
2022-08-31T03:04:22.854Z,63.20
2022-08-31T03:04:54.665Z,63.20
2022-08-31T03:05:27.637Z,63.10
2022-08-31T03:05:59.570Z,63.00
2022-08-31T03:06:32.574Z,63.10
2022-08-31T03:07:06.150Z,63.10
2022-08-31T03:07:38.747Z,63.00
2022-08-31T03:08:10.737Z,63.00
2022-08-31T03:08:42.672Z,63.00
2022-08-31T03:09:15.805Z,63.10
2022-08-31T03:09:47.854Z,63.00
2022-08-31T03:10:22.431Z,63.00
2022-08-31T03:10:54.930Z,63.00
2022-08-31T03:11:27.334Z,62.90
2022-08-31T03:12:00.001Z,62.90
2022-08-31T03:12:31.988Z,62.90
2022-08-31T03:13:04.234Z,62.90
2022-08-31T03:13:38.232Z,62.90
2022-08-31T03:14:10.122Z,62.90
2022-08-31T03:14:42.094Z,63.00
2022-08-31T03:15:15.282Z,62.90
2022-08-31T03:15:47.676Z,63.00
2022-08-31T03:16:21.839Z,62.80
2022-08-31T03:16:54.225Z,62.70
2022-08-31T03:17:26.181Z,62.80
2022-08-31T03:17:58.302Z,62.80
2022-08-31T03:18:30.261Z,62.90
2022-08-31T03:19:02.143Z,62.90
2022-08-31T03:19:34.523Z,63.00
2022-08-31T03:20:09.205Z,62.90
2022-08-31T03:20:41.099Z,62.90
2022-08-31T03:21:12.963Z,62.80
2022-08-31T03:21:46.770Z,62.70
2022-08-31T03:22:19.174Z,62.70
2022-08-31T03:22:52.842Z,62.80
2022-08-31T03:23:25.216Z,62.80
2022-08-31T03:23:58.552Z,62.70
2022-08-31T03:24:31.293Z,62.70
2022-08-31T03:25:04.824Z,62.80
2022-08-31T03:25:36.679Z,62.70
2022-08-31T03:26:11.602Z,62.60
2022-08-31T03:26:44.256Z,62.80
2022-08-31T03:27:16.045Z,62.70
2022-08-31T03:27:50.839Z,62.70
2022-08-31T03:28:23.086Z,62.70
2022-08-31T03:29:24.129Z,62.80
2022-08-31T03:29:59.738Z,62.80
2022-08-31T03:30:34.881Z,62.80
2022-08-31T03:31:11.597Z,62.80
2022-08-31T03:31:43.871Z,62.80
2022-08-31T03:32:15.637Z,62.90
2022-08-31T03:32:51.004Z,63.00
2022-08-31T03:33:24.342Z,62.90
2022-08-31T03:33:57.387Z,62.80
2022-08-31T03:34:29.247Z,62.80
2022-08-31T03:35:02.315Z,62.80
2022-08-31T03:35:34.609Z,62.60
2022-08-31T03:36:07.150Z,62.70
2022-08-31T03:36:39.007Z,62.70
2022-08-31T03:37:10.896Z,62.70
2022-08-31T03:37:43.200Z,62.70
2022-08-31T03:38:16.918Z,62.70
2022-08-31T03:38:48.810Z,62.70
2022-08-31T03:39:20.797Z,62.60
2022-08-31T03:39:52.943Z,62.80
2022-08-31T03:40:24.954Z,62.80
2022-08-31T03:40:56.878Z,62.90
2022-08-31T03:41:28.818Z,62.80
2022-08-31T03:42:00.771Z,62.80
2022-08-31T03:42:32.641Z,62.80
2022-08-31T03:43:05.184Z,62.80
2022-08-31T03:43:37.293Z,62.80
2022-08-31T03:44:09.250Z,62.70
2022-08-31T03:44:42.362Z,62.70
2022-08-31T03:45:23.975Z,62.70
2022-08-31T03:45:55.831Z,62.60
2022-08-31T03:46:29.386Z,62.60
2022-08-31T03:47:01.245Z,62.70
2022-08-31T03:47:33.079Z,62.70
2022-08-31T03:48:11.430Z,62.70
2022-08-31T03:48:49.378Z,62.70
2022-08-31T03:49:22.393Z,62.70
2022-08-31T03:50:18.552Z,62.70
2022-08-31T03:51:11.623Z,62.80
2022-08-31T03:51:43.629Z,62.70
2022-08-31T03:52:16.913Z,62.70
2022-08-31T03:52:54.113Z,62.60
2022-08-31T03:53:27.678Z,62.50
2022-08-31T03:54:01.556Z,62.50
2022-08-31T03:54:33.546Z,62.60
2022-08-31T03:55:07.516Z,62.60
2022-08-31T03:55:41.805Z,62.60
2022-08-31T03:56:14.769Z,62.60
2022-08-31T03:56:46.906Z,62.20
2022-08-31T03:57:18.729Z,62.60
2022-08-31T03:57:50.607Z,62.50
2022-08-31T03:58:23.182Z,62.60
2022-08-31T03:58:55.111Z,62.80
2022-08-31T03:59:57.462Z,62.70
2022-08-31T04:00:47.052Z,62.60
2022-08-31T04:01:39.431Z,62.50
2022-08-31T04:02:35.435Z,62.60
2022-08-31T04:03:29.354Z,62.50
2022-08-31T04:04:24.068Z,62.50
2022-08-31T04:05:36.791Z,62.70
2022-08-31T04:06:32.241Z,62.60
2022-08-31T04:07:22.816Z,62.70
2022-08-31T04:08:32.657Z,62.60
2022-08-31T04:09:23.246Z,62.70
2022-08-31T04:10:14.816Z,62.60
2022-08-31T04:11:17.301Z,62.50
2022-08-31T04:11:52.186Z,63.20
2022-08-31T04:12:44.054Z,62.90
2022-08-31T04:13:34.961Z,62.10
2022-08-31T04:14:25.496Z,63.10
2022-08-31T04:15:29.783Z,62.50
2022-08-31T04:16:35.756Z,62.60
2022-08-31T04:17:33.656Z,62.50
2022-08-31T04:18:25.437Z,64.80
2022-08-31T04:18:57.741Z,62.80
2022-08-31T04:19:31.521Z,62.60
2022-08-31T04:20:19.808Z,61.40
2022-08-31T04:21:02.256Z,62.80
2022-08-31T04:21:34.084Z,62.60
2022-08-31T04:22:05.869Z,62.50
2022-08-31T04:22:43.467Z,63.00
2022-08-31T04:23:33.430Z,62.80
2022-08-31T04:24:05.311Z,62.80
2022-08-31T04:24:37.138Z,62.80
2022-08-31T04:25:10.306Z,62.80
2022-08-31T04:25:43.062Z,62.80
2022-08-31T04:26:21.641Z,62.80
2022-08-31T04:26:54.157Z,62.70
2022-08-31T04:27:26.090Z,62.60
2022-08-31T04:27:58.422Z,63.10
2022-08-31T04:28:31.272Z,62.60
2022-08-31T04:29:06.857Z,62.60
2022-08-31T04:29:41.470Z,62.80
2022-08-31T04:30:13.635Z,62.60
2022-08-31T04:30:45.760Z,62.70
2022-08-31T04:31:22.613Z,62.90
2022-08-31T04:31:55.210Z,62.70
2022-08-31T04:32:28.264Z,63.00
2022-08-31T04:33:02.091Z,62.80
2022-08-31T04:33:33.957Z,63.00
2022-08-31T04:34:07.836Z,62.90
2022-08-31T04:34:39.889Z,62.90
2022-08-31T04:35:11.859Z,62.90
2022-08-31T04:35:44.948Z,63.10
2022-08-31T04:36:22.287Z,63.10
2022-08-31T04:36:57.134Z,63.40
2022-08-31T04:37:30.874Z,63.70
2022-08-31T04:38:02.902Z,63.10
2022-08-31T04:38:35.995Z,63.20
2022-08-31T04:39:09.450Z,63.10
2022-08-31T04:39:50.987Z,63.20
2022-08-31T04:40:26.104Z,62.90
2022-08-31T04:41:02.787Z,62.80
2022-08-31T04:41:38.197Z,63.10
2022-08-31T04:42:11.990Z,63.40
2022-08-31T04:42:44.903Z,63.00
2022-08-31T04:43:16.697Z,62.90
2022-08-31T04:43:52.056Z,62.90
2022-08-31T04:44:23.975Z,63.00
2022-08-31T04:45:01.331Z,63.10
2022-08-31T04:45:33.387Z,62.80
2022-08-31T04:46:07.499Z,62.00
2022-08-31T04:46:39.844Z,62.90
2022-08-31T04:47:11.743Z,63.20
2022-08-31T04:47:44.189Z,63.10
2022-08-31T04:48:15.999Z,63.20
2022-08-31T04:48:48.963Z,63.10
2022-08-31T04:49:20.796Z,63.00
2022-08-31T04:49:52.650Z,63.10
2022-08-31T04:50:24.526Z,63.10
2022-08-31T04:51:10.044Z,63.60
2022-08-31T04:51:42.496Z,63.00
2022-08-31T04:52:14.325Z,63.20
2022-08-31T04:53:03.393Z,63.30
2022-08-31T04:53:43.208Z,63.20
2022-08-31T04:54:15.108Z,63.10
2022-08-31T04:54:47.201Z,63.20
2022-08-31T04:55:19.189Z,63.10
2022-08-31T04:55:51.273Z,63.30
2022-08-31T04:56:27.187Z,63.90
2022-08-31T04:56:59.207Z,63.30
2022-08-31T04:57:36.233Z,63.30
2022-08-31T04:58:08.238Z,63.90
2022-08-31T04:58:48.386Z,63.30
2022-08-31T04:59:25.922Z,63.20
2022-08-31T05:00:13.075Z,63.40
2022-08-31T05:01:19.147Z,63.60
2022-08-31T05:02:10.042Z,63.50
2022-08-31T05:02:48.889Z,63.60
2022-08-31T05:03:23.713Z,63.50
2022-08-31T05:04:00.607Z,63.50
2022-08-31T05:04:32.452Z,63.50
2022-08-31T05:05:06.070Z,63.60
2022-08-31T05:05:39.469Z,63.50
2022-08-31T05:06:16.807Z,63.70
2022-08-31T05:06:48.600Z,63.80
2022-08-31T05:07:20.402Z,63.80
2022-08-31T05:07:53.191Z,63.00
2022-08-31T05:08:25.673Z,63.60
2022-08-31T05:09:01.122Z,64.50
2022-08-31T05:09:32.994Z,63.90
2022-08-31T05:10:05.621Z,63.80
2022-08-31T05:10:37.485Z,63.90
2022-08-31T05:11:14.297Z,63.70
2022-08-31T05:11:46.730Z,63.80
2022-08-31T05:12:19.088Z,63.90
2022-08-31T05:12:52.066Z,63.90
2022-08-31T05:13:25.826Z,64.00
2022-08-31T05:14:00.835Z,63.70
2022-08-31T05:14:35.814Z,63.70
2022-08-31T05:15:15.139Z,64.00
2022-08-31T05:15:47.006Z,63.80
2022-08-31T05:16:25.262Z,64.10
2022-08-31T05:16:57.926Z,63.90
2022-08-31T05:17:29.740Z,63.90
2022-08-31T05:18:01.896Z,64.10
2022-08-31T05:18:39.271Z,63.90
2022-08-31T05:19:11.382Z,63.80
2022-08-31T05:19:44.024Z,64.00
2022-08-31T05:20:18.509Z,64.00
2022-08-31T05:20:51.342Z,65.10
2022-08-31T05:21:29.460Z,64.10
2022-08-31T05:22:01.693Z,63.90
2022-08-31T05:22:35.662Z,64.40
2022-08-31T05:23:07.532Z,64.10
2022-08-31T05:23:40.719Z,64.20
2022-08-31T05:24:14.083Z,63.90
2022-08-31T05:24:48.148Z,64.70
2022-08-31T05:25:20.001Z,65.70
2022-08-31T05:25:53.122Z,64.60
2022-08-31T05:26:30.618Z,64.80
2022-08-31T05:27:02.897Z,64.20
2022-08-31T05:27:36.230Z,64.30
2022-08-31T05:28:08.931Z,64.40
2022-08-31T05:28:40.902Z,64.30
2022-08-31T05:29:14.356Z,64.60
2022-08-31T05:29:46.926Z,64.50
2022-08-31T05:30:47.774Z,64.60
2022-08-31T05:31:52.419Z,64.70
2022-08-31T05:32:25.478Z,65.00
2022-08-31T05:32:59.691Z,64.80
2022-08-31T05:33:31.536Z,64.60
2022-08-31T05:34:04.209Z,66.70
2022-08-31T05:34:43.346Z,65.40
2022-08-31T05:35:15.365Z,64.60
2022-08-31T05:35:49.080Z,65.60
2022-08-31T05:36:21.436Z,64.50
2022-08-31T05:36:56.834Z,64.60
2022-08-31T05:37:28.771Z,64.70
2022-08-31T05:38:00.594Z,64.80
2022-08-31T05:38:32.552Z,64.70
2022-08-31T05:39:09.287Z,65.00
2022-08-31T05:39:41.159Z,64.70
2022-08-31T05:40:13.182Z,64.80
2022-08-31T05:40:53.496Z,64.50
2022-08-31T05:41:26.263Z,64.40
2022-08-31T05:41:58.852Z,64.80
2022-08-31T05:42:30.706Z,64.50
2022-08-31T05:43:02.544Z,64.80
2022-08-31T05:43:34.731Z,64.70
2022-08-31T05:44:07.846Z,65.50
2022-08-31T05:44:42.145Z,64.60
2022-08-31T05:45:14.066Z,64.60
2022-08-31T05:45:47.423Z,65.70
2022-08-31T05:46:19.293Z,64.60
2022-08-31T05:46:57.601Z,64.70
2022-08-31T05:47:35.154Z,65.30
2022-08-31T05:48:06.977Z,63.90
2022-08-31T05:48:41.695Z,64.70
2022-08-31T05:49:21.225Z,64.70
2022-08-31T05:49:53.146Z,64.80
2022-08-31T05:50:26.383Z,64.80
2022-08-31T05:51:07.674Z,65.10
2022-08-31T05:51:43.297Z,64.50
2022-08-31T05:52:15.340Z,64.50
2022-08-31T05:52:48.137Z,65.10
2022-08-31T05:53:20.428Z,65.50
2022-08-31T05:53:52.513Z,64.70
2022-08-31T05:54:26.007Z,64.70
2022-08-31T05:54:57.851Z,64.80
2022-08-31T05:55:31.296Z,65.10
2022-08-31T05:56:14.357Z,64.80
2022-08-31T05:56:46.142Z,64.80
2022-08-31T05:57:21.449Z,64.90
2022-08-31T05:57:57.456Z,64.90
2022-08-31T05:58:30.661Z,65.00
2022-08-31T05:59:03.261Z,64.70
2022-08-31T05:59:39.062Z,64.70
2022-08-31T06:00:12.191Z,64.90
2022-08-31T06:00:50.487Z,64.80
2022-08-31T06:01:42.756Z,64.90
2022-08-31T06:02:17.522Z,65.40
2022-08-31T06:02:53.816Z,65.00
2022-08-31T06:03:26.032Z,65.20
2022-08-31T06:04:00.190Z,65.20
2022-08-31T06:04:32.109Z,64.90
2022-08-31T06:05:04.620Z,64.90
2022-08-31T06:05:36.542Z,65.10
2022-08-31T06:06:09.760Z,65.00
2022-08-31T06:06:41.646Z,64.90
2022-08-31T06:07:16.776Z,65.20
2022-08-31T06:07:57.945Z,65.00
2022-08-31T06:08:30.733Z,65.80
2022-08-31T06:09:02.735Z,65.40
2022-08-31T06:09:35.382Z,66.00
2022-08-31T06:10:07.959Z,65.10
2022-08-31T06:10:39.953Z,65.30
2022-08-31T06:11:17.504Z,65.20
2022-08-31T06:11:50.843Z,63.60
2022-08-31T06:12:25.622Z,65.50
2022-08-31T06:12:59.099Z,63.20
2022-08-31T06:13:31.250Z,65.70
2022-08-31T06:14:05.568Z,65.70
2022-08-31T06:14:38.790Z,66.10
2022-08-31T06:15:11.906Z,66.50
2022-08-31T06:15:44.975Z,65.20
2022-08-31T06:16:17.955Z,65.20
2022-08-31T06:16:50.035Z,65.40
2022-08-31T06:17:24.548Z,66.20
2022-08-31T06:17:57.268Z,66.00
2022-08-31T06:18:30.919Z,63.50
2022-08-31T06:19:07.083Z,65.40
2022-08-31T06:19:40.386Z,65.40
2022-08-31T06:20:17.052Z,65.70
2022-08-31T06:20:50.775Z,65.60
2022-08-31T06:21:27.966Z,65.50
2022-08-31T06:21:59.758Z,65.40
2022-08-31T06:22:35.366Z,65.50
2022-08-31T06:23:09.552Z,66.00
2022-08-31T06:23:51.746Z,65.70
2022-08-31T06:24:25.211Z,65.50
2022-08-31T06:24:57.213Z,65.80
2022-08-31T06:25:28.969Z,65.90
2022-08-31T06:26:13.102Z,66.10
2022-08-31T06:26:58.436Z,66.10
2022-08-31T06:27:38.758Z,66.60
2022-08-31T06:28:15.278Z,66.10
2022-08-31T06:28:49.737Z,66.60
2022-08-31T06:29:22.296Z,66.30
2022-08-31T06:29:54.991Z,66.70
2022-08-31T06:30:27.897Z,67.80
2022-08-31T06:31:02.461Z,67.60
2022-08-31T06:31:47.106Z,66.90
2022-08-31T06:32:21.974Z,66.40
2022-08-31T06:33:01.066Z,66.90
2022-08-31T06:33:43.245Z,67.00
2022-08-31T06:34:21.953Z,67.20
2022-08-31T06:35:20.215Z,67.60
2022-08-31T06:36:21.279Z,69.60
2022-08-31T06:37:06.346Z,70.10
2022-08-31T06:37:38.138Z,69.30
2022-08-31T06:38:32.880Z,68.50
2022-08-31T06:39:23.977Z,68.20
2022-08-31T06:40:02.930Z,68.90
2022-08-31T06:40:42.187Z,69.50
2022-08-31T06:41:39.029Z,69.30
2022-08-31T06:42:31.864Z,69.00
2022-08-31T06:43:15.922Z,68.80
2022-08-31T06:44:08.331Z,68.70
2022-08-31T06:44:58.034Z,70.40
2022-08-31T06:45:42.548Z,69.90
2022-08-31T06:46:34.872Z,69.60
2022-08-31T06:47:14.054Z,70.00
2022-08-31T06:47:47.163Z,70.50
2022-08-31T06:48:19.713Z,72.90
2022-08-31T06:48:57.590Z,74.30
2022-08-31T06:49:29.598Z,73.80
2022-08-31T06:50:03.149Z,73.70
2022-08-31T06:50:35.130Z,71.70
2022-08-31T06:51:08.308Z,71.40
2022-08-31T06:51:40.455Z,72.00
2022-08-31T06:52:14.351Z,71.00
2022-08-31T06:52:48.549Z,71.50
2022-08-31T06:53:29.512Z,72.40
2022-08-31T06:54:28.973Z,72.90
2022-08-31T06:55:20.561Z,73.70
2022-08-31T06:55:55.175Z,73.90
2022-08-31T06:56:45.662Z,74.60
2022-08-31T06:57:55.430Z,75.20
2022-08-31T06:58:45.885Z,75.20
2022-08-31T06:59:40.846Z,74.60
2022-08-31T07:00:38.664Z,74.80
2022-08-31T07:01:35.373Z,76.30
2022-08-31T07:02:37.446Z,75.30
2022-08-31T07:03:32.892Z,74.50
2022-08-31T07:04:08.906Z,74.00
2022-08-31T07:04:41.701Z,74.20
2022-08-31T07:05:24.297Z,74.70
2022-08-31T07:05:57.032Z,75.70
2022-08-31T07:06:34.063Z,76.20
2022-08-31T07:07:11.164Z,75.20
2022-08-31T07:07:43.854Z,75.20
2022-08-31T07:08:15.977Z,75.10
2022-08-31T07:08:56.297Z,76.40
2022-08-31T07:09:28.343Z,76.00
2022-08-31T07:10:00.190Z,75.20
2022-08-31T07:10:34.827Z,76.00
2022-08-31T07:11:15.096Z,74.40
2022-08-31T07:11:51.194Z,74.80
2022-08-31T07:12:23.274Z,74.40
2022-08-31T07:12:55.102Z,74.70
2022-08-31T07:13:27.041Z,74.90
2022-08-31T07:13:59.496Z,75.30
2022-08-31T07:14:32.734Z,75.80
2022-08-31T07:15:06.170Z,75.80
2022-08-31T07:15:38.203Z,74.80
2022-08-31T07:16:13.580Z,76.10
2022-08-31T07:16:46.613Z,76.50
2022-08-31T07:17:18.458Z,76.30
2022-08-31T07:17:51.732Z,76.00
2022-08-31T07:18:23.572Z,76.40
2022-08-31T07:19:01.411Z,76.40
2022-08-31T07:19:33.283Z,77.10
2022-08-31T07:20:08.412Z,76.60
2022-08-31T07:20:41.087Z,76.20
2022-08-31T07:21:25.595Z,76.50
2022-08-31T07:22:01.079Z,76.30
2022-08-31T07:22:33.806Z,76.40
2022-08-31T07:23:27.629Z,76.40
2022-08-31T07:24:10.176Z,77.00
2022-08-31T07:24:42.127Z,76.30
2022-08-31T07:25:15.182Z,77.10
2022-08-31T07:25:46.985Z,77.40
2022-08-31T07:26:25.433Z,77.70
2022-08-31T07:27:00.561Z,77.10
2022-08-31T07:27:39.956Z,76.90
2022-08-31T07:28:13.123Z,76.70
2022-08-31T07:28:45.646Z,76.50
2022-08-31T07:29:21.007Z,77.50
2022-08-31T07:29:52.815Z,76.80
2022-08-31T07:30:25.856Z,77.20
2022-08-31T07:31:03.749Z,77.00
2022-08-31T07:31:44.586Z,78.00
2022-08-31T07:32:17.468Z,78.00
2022-08-31T07:32:50.397Z,78.20
2022-08-31T07:33:28.462Z,76.10
2022-08-31T07:34:07.826Z,77.30
2022-08-31T07:34:45.129Z,77.70
2022-08-31T07:35:37.166Z,77.70
2022-08-31T07:36:25.887Z,77.80
2022-08-31T07:37:24.101Z,78.50
2022-08-31T07:38:15.169Z,78.10
2022-08-31T07:39:05.682Z,78.80
2022-08-31T07:39:57.791Z,79.00
2022-08-31T07:40:49.405Z,80.50
2022-08-31T07:41:43.160Z,80.90
2022-08-31T07:42:20.201Z,81.30
2022-08-31T07:42:52.125Z,80.40